Bookmark and Share
Track history (hours):
 

Rodney Mitchell

More information available from US FCC via Universal Licensing System and Coast Guard Vessel Documentation Center.

Last reported at 2014-Apr-22 21:29 UTC. Time now 2014-Apr-24 06:28 UTC.
Position N 29°32' W 094°54'.

; draft 3 m.

Type: Towing. MMSI: 367028860.

NotesDate/timePositionNaut miles runAvg speedWind from/ knotsBaromVisibWave heightAir tempDewpointWater temp
2014-Apr-22 21:29N 29°32' W 094°54'5 4.8
2014-Apr-22 20:33N 29°35' W 094°56'5 5.1
2014-Apr-22 19:33N 29°40' W 094°59'4 4.4
2014-Apr-22 18:33N 29°44' W 095°02'4 3.9
2014-Apr-22 17:33N 29°47' W 095°05'1 0.6
2014-Apr-22 16:16N 29°46' W 095°05'4 4.5
2014-Apr-22 15:27N 29°44' W 095°09'4 4.4
2014-Apr-22 14:29N 29°44' W 095°14'1 0.7
2014-Apr-22 13:33N 29°44' W 095°13'5 4.9
2014-Apr-22 12:33N 29°44' W 095°07'4 0.3
2014-Apr-21 22:17N 29°48' W 095°04'1 1.6
2014-Apr-21 21:33N 29°47' W 095°05'0 0.0
2014-Apr-21 20:33N 29°47' W 095°05'0 0.1
2014-Apr-21 19:29N 29°47' W 095°05'4 4.1
2014-Apr-21 18:33N 29°44' W 095°08'4 4.3
2014-Apr-21 17:31N 29°44' W 095°13'  
2014-Apr-19 05:11N 29°43' W 095°14'3 3.5
2014-Apr-19 04:17N 29°45' W 095°11'3 4.1
2014-Apr-19 03:31N 29°44' W 095°07'2 0.6
2014-Apr-18 23:16N 29°47' W 095°06'1 0.2
2014-Apr-18 18:33N 29°46' W 095°06'4 3.7
2014-Apr-18 17:33N 29°44' W 095°02'4 4.3
2014-Apr-18 16:32N 29°41' W 094°59'5 4.8
2014-Apr-18 15:33N 29°36' W 094°57'5 5.2
2014-Apr-18 14:33N 29°32' W 094°54'6 5.9
2014-Apr-18 13:33N 29°27' W 094°50'  
2014-Apr-16 09:25N 29°30' W 094°53'4 4.4
2014-Apr-16 08:31N 29°34' W 094°55'5 5.1
2014-Apr-16 07:32N 29°38' W 094°58'5 5.3
2014-Apr-16 06:33N 29°42' W 095°01'5 4.9
2014-Apr-16 05:33N 29°46' W 095°05'  

Dump ship's entire track history

sailing weather and tide predictions

Rodney Mitchell — WCV8372 — position and weather